Time;durP1;ratioP1;P1;durP2;ratioP2;P2;SDS_P1;SDS_P2;PMS_P1;PMS_P2;Temp;Humidity;BMP_temperature;BMP_pressure;BME280_temperature;BME280_humidity;BME280_pressure;Samples;Min_cycle;Max_cycle;Signal;HPM_P1;HPM_P2
2022/11/28 00:00:10;;;;;;;20.45;13.30;;;;;;;4.57;100.00;101409.66;10294092;28;20043;-70
2022/11/28 00:05:12;;;;;;;18.20;12.23;;;;;;;4.47;100.00;101412.06;10294325;28;20061;-70
2022/11/28 00:10:12;;;;;;;20.30;12.80;;;;;;;4.15;100.00;101376.53;10294801;28;20055;-70
2022/11/28 00:15:13;;;;;;;18.40;13.00;;;;;;;4.29;100.00;101389.63;10293345;28;20101;-70
2022/11/28 00:20:14;;;;;;;18.98;13.18;;;;;;;4.33;100.00;101388.47;10293382;28;20046;-70
2022/11/28 00:25:15;;;;;;;20.92;14.27;;;;;;;4.28;100.00;101380.06;10293232;28;20140;-70
2022/11/28 00:30:16;;;;;;;19.52;12.90;;;;;;;3.84;100.00;101291.81;10292977;28;20046;-70
2022/11/28 00:35:16;;;;;;;18.58;13.85;;;;;;;4.47;100.00;101413.84;10293885;28;20121;-70
2022/11/28 00:40:17;;;;;;;22.27;15.05;;;;;;;4.01;100.00;101346.75;10293135;28;20137;-70
2022/11/28 00:45:18;;;;;;;22.45;15.75;;;;;;;4.11;100.00;101370.63;10292730;28;20035;-72
2022/11/28 00:50:19;;;;;;;20.45;14.32;;;;;;;4.40;100.00;101416.06;10292650;28;20058;-70
2022/11/28 00:55:20;;;;;;;20.60;14.15;;;;;;;4.37;100.00;101418.91;10292144;28;20135;-70
2022/11/28 01:00:21;;;;;;;20.83;14.50;;;;;;;4.41;100.00;101427.41;10292658;28;20125;-70
2022/11/28 01:05:21;;;;;;;23.38;13.50;;;;;;;4.20;100.00;101392.84;10291066;28;20046;-71
2022/11/28 01:10:22;;;;;;;22.15;15.23;;;;;;;4.16;100.00;101388.72;10292609;28;20050;-70
2022/11/28 01:15:23;;;;;;;22.88;14.85;;;;;;;4.21;100.00;101392.75;10292144;28;20088;-70
2022/11/28 01:20:24;;;;;;;20.65;14.45;;;;;;;4.23;100.00;101400.53;10292025;28;20043;-70
2022/11/28 01:25:25;;;;;;;23.38;14.40;;;;;;;4.50;100.00;101437.34;10291179;28;20039;-70
2022/11/28 01:30:25;;;;;;;16.75;12.77;;;;;;;3.43;100.00;101264.66;10291692;28;20067;-70
2022/11/28 01:35:26;;;;;;;19.33;12.77;;;;;;;4.41;100.00;101444.03;10291970;28;20066;-69
2022/11/28 01:40:27;;;;;;;18.48;13.38;;;;;;;4.49;100.00;101449.66;10291401;28;20046;-70
2022/11/28 01:45:33;;;;;;;17.42;12.63;;;;;;;4.44;100.00;101435.94;10290759;28;20122;-70
2022/11/28 01:50:36;;;;;;;17.52;13.00;;;;;;;4.48;100.00;101449.75;10290707;28;20423;-71
2022/11/28 01:55:45;;;;;;;15.65;12.25;;;;;;;4.41;100.00;101451.09;10292086;28;20415;-69
2022/11/28 02:00:47;;;;;;;15.77;11.57;;;;;;;3.73;100.00;101341.59;10290763;28;20142;-70
2022/11/28 02:05:50;;;;;;;16.48;12.52;;;;;;;4.19;100.00;101414.81;10291157;28;20045;-70
2022/11/28 02:11:09;;;;;;;15.38;11.07;;;;;;;4.54;100.00;101465.97;10301888;28;20039;-70
2022/11/28 02:16:31;;;;;;;15.65;12.02;;;;;;;4.57;100.00;101463.13;10315409;28;20108;-69
2022/11/28 02:21:48;;;;;;;16.38;12.68;;;;;;;4.57;100.00;101472.81;10339336;28;20050;-69
2022/11/28 02:27:21;;;;;;;18.10;13.05;;;;;;;4.38;100.00;101439.00;10333538;28;20039;-70
2022/11/28 02:32:26;;;;;;;20.95;13.18;;;;;;;4.46;100.00;101476.16;10292310;28;20058;-69
2022/11/28 02:37:51;;;;;;;23.17;13.57;;;;;;;4.41;100.00;101482.66;10297228;28;20454;-69
2022/11/28 02:43:27;;;;;;;23.67;14.30;;;;;;;3.78;100.00;101400.81;10297145;28;20135;-69
2022/11/28 02:48:44;;;;;;;20.08;13.60;;;;;;;3.97;100.00;101463.53;10296858;28;20519;-71
2022/11/28 02:53:47;;;;;;;17.33;12.77;;;;;;;4.02;100.00;101479.03;10297328;28;20097;-70
2022/11/28 02:58:48;;;;;;;20.80;13.07;;;;;;;3.87;100.00;101468.56;10296964;28;20086;-69
2022/11/28 03:04:07;;;;;;;21.55;13.80;;;;;;;3.93;100.00;101498.88;10296285;28;20499;-70
2022/11/28 03:09:13;;;;;;;22.98;14.02;;;;;;;3.99;100.00;101502.91;10300886;28;20125;-70
2022/11/28 03:14:32;;;;;;;26.42;15.05;;;;;;;3.89;100.00;101507.91;10313836;28;20053;-70
2022/11/28 03:19:49;;;;;;;25.50;15.68;;;;;;;3.93;100.00;101517.28;10334194;28;20050;-70
2022/11/28 03:25:12;;;;;;;24.70;15.23;;;;;;;3.76;100.00;101480.69;10335874;28;20050;-70
2022/11/28 03:30:36;;;;;;;27.03;14.70;;;;;;;3.71;100.00;101480.97;10320058;28;20101;-71
2022/11/28 03:35:39;;;;;;;;;;;;;;;3.99;100.00;101516.88;10329046;28;20074;-70
2022/11/28 03:40:43;;;;;;;29.73;15.55;;;;;;;3.82;100.00;101517.09;10335187;28;20413;-70
2022/11/28 03:45:48;;;;;;;27.85;15.38;;;;;;;3.66;100.00;101502.28;10335598;28;20490;-70
2022/11/28 03:50:59;;;;;;;;;;;;;;;3.93;100.00;101529.56;10336231;28;20077;-70
2022/11/28 03:56:16;;;;;;;27.63;13.85;;;;;;;3.66;100.00;101525.09;10335215;28;19922;-70
2022/11/28 04:01:35;;;;;;;31.35;15.68;;;;;;;3.62;100.00;101521.81;10334950;28;20471;-70
2022/11/28 04:06:53;;;;;;;25.58;15.40;;;;;;;3.40;100.00;101501.25;10334179;28;20042;-70
2022/11/28 04:12:03;;;;;;;29.52;14.73;;;;;;;3.48;100.00;101542.81;10334370;28;20505;-70
2022/11/28 04:17:26;;;;;;;25.15;13.88;;;;;;;3.21;100.00;101503.31;10332375;28;20104;-70
2022/11/28 04:22:31;;;;;;;26.25;13.07;;;;;;;3.44;100.00;101559.72;10304783;28;20886;-69
2022/11/28 04:27:39;;;;;;;23.65;12.13;;;;;;;3.48;100.00;101540.19;10292522;28;20053;-71
2022/11/28 04:32:46;;;;;;;17.83;12.02;;;;;;;3.61;100.00;101564.78;10293644;28;20054;-71
2022/11/28 04:37:48;;;;;;;24.60;12.93;;;;;;;3.35;100.00;101532.22;10292420;28;20078;-70
2022/11/28 04:42:55;;;;;;;31.35;14.82;;;;;;;3.35;100.00;101555.84;10289830;28;20073;-67
2022/11/28 04:47:56;;;;;;;33.55;15.25;;;;;;;3.41;100.00;101586.13;10289885;28;20510;-72
2022/11/28 04:52:57;;;;;;;27.05;15.48;;;;;;;3.42;100.00;101582.59;10294493;28;20058;-68
2022/11/28 04:58:21;;;;;;;28.10;14.27;;;;;;;3.58;100.00;101588.59;10293878;28;20073;-67
2022/11/28 05:03:27;;;;;;;35.08;17.05;;;;;;;3.54;100.00;101581.84;10309214;28;20049;-68
2022/11/28 05:08:28;;;;;;;43.67;18.85;;;;;;;3.02;100.00;101511.44;10329496;28;20510;-67
2022/11/28 05:13:28;;;;;;;40.92;19.27;;;;;;;3.39;100.00;101572.28;10329972;28;20046;-67
2022/11/28 05:18:29;;;;;;;39.90;17.58;;;;;;;3.39;100.00;101572.28;10297458;28;20046;-70
2022/11/28 05:23:30;;;;;;;38.90;18.63;;;;;;;3.53;100.00;101603.81;10288831;28;20038;-71
2022/11/28 05:28:32;;;;;;;37.40;18.30;;;;;;;3.39;100.00;101567.03;10289159;28;20054;-70
2022/11/28 05:33:33;;;;;;;31.77;16.42;;;;;;;3.61;100.00;101588.41;10289383;28;20042;-70
2022/11/28 05:38:34;;;;;;;29.48;16.15;;;;;;;3.66;100.00;101596.88;10297165;28;20042;-70
2022/11/28 05:43:36;;;;;;;33.20;16.90;;;;;;;3.76;100.00;101617.34;10314088;28;20117;-70
2022/11/28 05:48:36;;;;;;;24.58;14.35;;;;;;;3.69;100.00;101623.91;10329181;28;20050;-70
2022/11/28 05:53:37;;;;;;;22.67;13.00;;;;;;;2.91;100.00;101498.94;10336345;28;20047;-70
2022/11/28 05:58:39;;;;;;;24.40;12.73;;;;;;;3.72;100.00;101629.84;10339521;28;20045;-70
2022/11/28 06:03:40;;;;;;;23.20;13.30;;;;;;;3.47;100.00;101601.56;10339994;28;20064;-71
2022/11/28 06:08:41;;;;;;;28.15;12.35;;;;;;;3.58;100.00;101632.44;10337889;28;20047;-72
2022/11/28 06:13:43;;;;;;;23.85;12.82;;;;;;;3.58;100.00;101609.63;10339208;28;20046;-73
2022/11/28 06:18:45;;;;;;;24.45;15.45;;;;;;;3.49;100.00;101562.88;10338861;28;20517;-71
2022/11/28 06:23:46;;;;;;;26.23;15.35;;;;;;;3.87;100.00;101626.28;10338845;28;20053;-71
2022/11/28 06:28:47;;;;;;;22.08;12.98;;;;;;;3.95;100.00;101643.34;10338035;28;20517;-72
2022/11/28 06:33:49;;;;;;;22.58;13.40;;;;;;;3.24;100.00;101518.88;10336642;28;20038;-72
2022/11/28 06:38:49;;;;;;;19.48;10.70;;;;;;;3.02;100.00;101482.56;10303763;28;20109;-72
2022/11/28 06:43:50;;;;;;;23.13;11.85;;;;;;;3.43;100.00;101569.34;10297018;28;20047;-70
2022/11/28 06:48:52;;;;;;;24.63;12.68;;;;;;;3.63;100.00;101604.13;10296461;28;20059;-70
2022/11/28 06:53:53;;;;;;;19.23;10.30;;;;;;;3.52;100.00;101588.13;10295469;28;20149;-73
2022/11/28 06:58:56;;;;;;;47.28;12.48;;;;;;;3.82;100.00;101623.06;10296912;28;20043;-71
2022/11/28 07:03:57;;;;;;;21.17;10.68;;;;;;;3.81;100.00;101631.91;10295200;28;20038;-72
2022/11/28 07:08:58;;;;;;;20.70;10.57;;;;;;;3.91;100.00;101626.94;10296799;28;20041;-72
2022/11/28 07:14:01;;;;;;;24.27;13.15;;;;;;;3.63;100.00;101591.81;10296031;28;20042;-71
2022/11/28 07:19:02;;;;;;;30.48;11.23;;;;;;;3.94;100.00;101636.41;10295740;28;20070;-72
2022/11/28 07:24:03;;;;;;;17.95;10.77;;;;;;;3.38;100.00;101545.16;10295965;28;20057;-72
2022/11/28 07:29:06;;;;;;;16.83;10.55;;;;;;;3.56;100.00;101568.63;10295954;28;20122;-71
2022/11/28 07:34:08;;;;;;;21.05;11.80;;;;;;;3.82;100.00;101612.56;10295870;28;20487;-71
2022/11/28 07:39:12;;;;;;;16.05;10.93;;;;;;;4.00;100.00;101639.50;10295358;28;20038;-70
2022/11/28 07:44:16;;;;;;;;;;;;;;;4.18;100.00;101627.00;10295894;28;20487;-71
2022/11/28 07:49:17;;;;;;;13.48;8.65;;;;;;;3.85;100.00;101601.84;10295858;28;19926;-70
2022/11/28 07:54:18;;;;;;;14.30;9.63;;;;;;;4.07;100.00;101629.47;10294674;28;20039;-70
2022/11/28 07:59:18;;;;;;;16.83;11.20;;;;;;;4.27;100.00;101628.22;10294855;28;20047;-70
2022/11/28 08:04:19;;;;;;;26.38;13.13;;;;;;;4.17;100.00;101587.69;10294955;28;20038;-71
2022/11/28 08:09:20;;;;;;;23.48;13.13;;;;;;;3.87;100.00;101510.59;10294269;28;20053;-70
2022/11/28 08:14:21;;;;;;;23.02;12.52;;;;;;;4.71;100.00;101595.63;10293653;28;20106;-70
2022/11/28 08:19:22;;;;;;;19.88;10.93;;;;;;;4.42;100.00;101505.41;10294195;28;20105;-70
2022/11/28 08:24:23;;;;;;;15.25;9.50;;;;;;;4.87;100.00;101591.03;10293946;28;20082;-70
2022/11/28 08:29:23;;;;;;;20.15;9.73;;;;;;;4.79;100.00;101585.44;10294563;28;20042;-70
2022/11/28 08:34:24;;;;;;;16.50;11.20;;;;;;;4.77;100.00;101584.69;10293678;28;20055;-71
2022/11/28 08:39:25;;;;;;;16.10;10.10;;;;;;;4.76;100.00;101573.31;10293208;28;20129;-70
2022/11/28 08:44:26;;;;;;;18.77;10.90;;;;;;;4.90;100.00;101571.56;10293712;28;20057;-70
2022/11/28 08:49:27;;;;;;;10.77;7.20;;;;;;;5.12;100.00;101574.47;10293417;28;20419;-72
2022/11/28 08:54:28;;;;;;;10.32;7.72;;;;;;;5.16;100.00;101565.41;10292904;28;20051;-71
2022/11/28 08:59:29;;;;;;;11.50;7.80;;;;;;;4.67;99.54;101497.59;10292456;28;20046;-69
2022/11/28 09:04:29;;;;;;;14.40;8.93;;;;;;;4.61;99.04;101507.66;10292041;28;20477;-69
2022/11/28 09:09:30;;;;;;;12.25;7.00;;;;;;;4.84;99.30;101559.63;10292306;28;20046;-70
2022/11/28 09:14:31;;;;;;;15.13;7.95;;;;;;;4.90;98.65;101574.19;10291364;28;20042;-70
2022/11/28 09:19:32;;;;;;;9.77;6.60;;;;;;;4.78;99.35;101550.34;10291903;28;20514;-70
2022/11/28 09:24:32;;;;;;;13.32;8.20;;;;;;;4.46;99.38;101502.47;10292080;28;20047;-71
2022/11/28 09:29:33;;;;;;;14.48;7.97;;;;;;;4.51;98.92;101499.53;10291558;28;20042;-71
2022/11/28 09:34:34;;;;;;;20.45;9.75;;;;;;;4.45;98.79;101502.56;10291821;28;20030;-71
2022/11/28 09:39:35;;;;;;;16.48;10.55;;;;;;;4.57;99.93;101513.13;10290884;28;20042;-71
2022/11/28 09:44:44;;;;;;;16.55;9.52;;;;;;;4.76;98.02;101572.47;10291014;28;20085;-71
2022/11/28 09:50:02;;;;;;;21.77;12.70;;;;;;;4.70;99.40;101573.72;10291671;28;20495;-71
2022/11/28 09:55:27;;;;;;;19.55;11.70;;;;;;;3.82;100.00;101438.25;10294251;28;20469;-71
2022/11/28 10:00:45;;;;;;;21.45;12.35;;;;;;;4.41;100.00;101511.63;10272719;28;20038;-71
2022/11/28 10:06:00;;;;;;;19.58;11.70;;;;;;;4.77;100.00;101564.47;10299350;28;20506;-71
2022/11/28 10:11:19;;;;;;;14.75;9.57;;;;;;;4.88;99.76;101524.28;10303940;28;20034;-71
2022/11/28 10:16:34;;;;;;;20.42;10.32;;;;;;;5.21;97.82;101560.69;10324315;28;20418;-71
2022/11/28 10:21:40;;;;;;;;;;;;;;;5.47;96.72;101561.56;10308176;28;20045;-71
2022/11/28 10:26:49;;;;;;;14.00;9.35;;;;;;;5.23;97.26;101560.56;10290790;28;19925;-71
2022/11/28 10:31:56;;;;;;;12.88;9.18;;;;;;;4.97;97.65;101513.13;10290094;28;20118;-71
2022/11/28 10:37:06;;;;;;;14.00;9.10;;;;;;;5.19;96.39;101559.94;10290964;28;20475;-71
2022/11/28 10:42:14;;;;;;;14.15;8.77;;;;;;;4.72;97.37;101534.97;10297953;28;20458;-71
2022/11/28 10:47:53;;;;;;;14.73;8.68;;;;;;;4.87;96.70;101548.91;10298164;28;20082;-71
2022/11/28 10:52:59;;;;;;;16.80;8.77;;;;;;;4.72;97.25;101561.28;10339525;28;20042;-71
2022/11/28 10:58:24;;;;;;;12.40;8.38;;;;;;;4.85;96.49;101569.25;10339081;28;20096;-71
2022/11/28 11:03:28;;;;;;;13.85;9.77;;;;;;;4.65;98.48;101559.16;10337330;28;20564;-71
2022/11/28 11:08:35;;;;;;;12.05;9.18;;;;;;;4.39;97.80;101509.06;10336741;28;20042;-71
2022/11/28 11:14:04;;;;;;;17.83;9.70;;;;;;;4.80;97.71;101568.69;10337387;28;20038;-71
2022/11/28 11:19:05;;;;;;;12.10;7.45;;;;;;;4.28;97.74;101483.47;10285612;28;20078;-71
2022/11/28 11:24:17;;;;;;;17.65;7.95;;;;;;;4.68;96.02;101553.72;10291876;28;20049;-68
2022/11/28 11:29:36;;;;;;;15.95;8.50;;;;;;;4.86;97.21;101568.28;10288578;28;20054;-69
2022/11/28 11:34:43;;;;;;;29.45;11.15;;;;;;;4.79;97.06;101572.28;10300621;28;20034;-69
2022/11/28 11:39:51;;;;;;;15.50;8.85;;;;;;;4.74;96.11;101569.94;10302470;28;20047;-72
2022/11/28 11:44:53;;;;;;;13.95;7.88;;;;;;;4.64;98.29;101571.50;10308889;28;20474;-69
2022/11/28 11:50:04;;;;;;;15.75;8.13;;;;;;;4.65;97.88;101567.06;10312173;28;20070;-69
2022/11/28 11:55:17;;;;;;;12.82;5.80;;;;;;;4.48;95.88;101553.19;10320121;28;20414;-70
2022/11/28 12:00:22;;;;;;;14.23;6.63;;;;;;;4.46;96.80;101589.31;10332002;28;20080;-71
2022/11/28 12:05:38;;;;;;;18.70;6.38;;;;;;;4.31;96.46;101540.31;10294092;28;20454;-70
2022/11/28 12:10:45;;;;;;;20.70;5.97;;;;;;;3.68;95.89;101452.28;10294464;28;20133;-71
2022/11/28 12:16:03;;;;;;;11.07;5.70;;;;;;;4.62;96.88;101602.31;10293638;28;20047;-72
2022/11/28 12:21:27;;;;;;;11.60;5.82;;;;;;;4.53;96.39;101587.97;10293469;28;20043;-71
2022/11/28 12:26:46;;;;;;;9.82;5.65;;;;;;;4.37;97.24;101587.28;10274380;28;20050;-71
2022/11/28 12:32:14;;;;;;;15.32;6.45;;;;;;;4.37;96.76;101592.53;10293803;28;20038;-71
2022/11/28 12:37:44;;;;;;;13.65;5.43;;;;;;;4.42;97.23;101605.38;10292894;28;20042;-70
2022/11/28 12:43:11;;;;;;;11.88;5.25;;;;;;;4.40;98.15;101610.75;10256978;28;20050;-70
2022/11/28 12:48:44;;;;;;;13.45;5.40;;;;;;;4.39;96.99;101601.16;10277009;28;20134;-71
2022/11/28 12:54:20;;;;;;;13.55;5.82;;;;;;;4.42;97.95;101611.47;10293412;28;20035;-71
2022/11/28 12:59:58;;;;;;;12.45;5.10;;;;;;;4.41;96.74;101615.06;10270647;28;20055;-71
2022/11/28 13:05:21;;;;;;;12.40;5.57;;;;;;;3.80;97.83;101526.84;10292093;28;20046;-71
2022/11/28 13:10:34;;;;;;;12.70;6.13;;;;;;;3.57;97.38;101500.22;10292815;28;20059;-71
2022/11/28 13:15:41;;;;;;;12.18;5.97;;;;;;;4.20;98.18;101624.31;10299852;28;20410;-71
2022/11/28 13:20:48;;;;;;;19.58;7.22;;;;;;;4.09;98.76;101631.06;10286290;28;20047;-70
2022/11/28 13:26:20;;;;;;;13.40;6.63;;;;;;;4.12;99.61;101630.88;10284261;28;20518;-72
2022/11/28 13:31:35;;;;;;;10.57;6.57;;;;;;;4.01;98.94;101632.47;10311678;28;20050;-71
2022/11/28 13:36:44;;;;;;;13.02;6.78;;;;;;;3.89;100.00;101624.41;10300164;28;20125;-71
2022/11/28 13:42:19;;;;;;;18.30;7.55;;;;;;;3.76;99.63;101617.34;10322053;28;20058;-71
2022/11/28 13:47:20;;;;;;;12.02;6.55;;;;;;;3.82;100.00;101648.53;10331434;28;20058;-72
2022/11/28 13:52:28;;;;;;;14.57;6.47;;;;;;;3.85;99.29;101648.34;10331406;28;20128;-71
2022/11/28 13:57:38;;;;;;;12.85;6.70;;;;;;;3.48;100.00;101608.50;10319510;28;20062;-71
2022/11/28 14:02:43;;;;;;;13.23;6.70;;;;;;;3.75;100.00;101660.34;10291038;28;20447;-71
2022/11/28 14:07:46;;;;;;;10.20;5.95;;;;;;;3.64;100.00;101643.41;10290557;28;20047;-71
2022/11/28 14:12:48;;;;;;;15.50;6.47;;;;;;;3.67;100.00;101651.13;10290340;28;20538;-71
2022/11/28 14:18:04;;;;;;;19.75;8.32;;;;;;;3.67;100.00;101666.88;10298594;28;20039;-71
2022/11/28 14:23:23;;;;;;;15.80;8.20;;;;;;;3.66;100.00;101665.22;10298345;28;20038;-72
2022/11/28 14:28:35;;;;;;;13.43;7.38;;;;;;;3.59;100.00;101671.78;10298910;28;20074;-71
2022/11/28 14:33:42;;;;;;;18.10;7.45;;;;;;;3.52;100.00;101673.06;10299111;28;20047;-71
2022/11/28 14:38:44;;;;;;;14.27;7.53;;;;;;;3.51;100.00;101666.13;10303306;28;20058;-71
2022/11/28 14:43:48;;;;;;;22.40;8.48;;;;;;;3.47;100.00;101656.72;10320559;28;20090;-72
2022/11/28 14:48:58;;;;;;;11.00;6.60;;;;;;;3.52;100.00;101683.56;10307392;28;20054;-71
2022/11/28 14:53:59;;;;;;;15.63;6.88;;;;;;;3.38;100.00;101676.50;10322975;28;20046;-71
2022/11/28 14:59:02;;;;;;;15.65;6.70;;;;;;;3.33;100.00;101672.44;10337578;28;20046;-72
2022/11/28 15:04:38;;;;;;;22.77;6.72;;;;;;;3.43;100.00;101695.44;10337176;28;20080;-71
2022/11/28 15:10:01;;;;;;;18.42;6.97;;;;;;;2.92;100.00;101631.84;10311808;28;20423;-71
2022/11/28 15:15:06;;;;;;;17.73;9.70;;;;;;;3.24;100.00;101686.09;10337559;28;20042;-71
2022/11/28 15:20:19;;;;;;;25.55;14.57;;;;;;;2.72;100.00;101625.13;10336532;28;20049;-72
2022/11/28 15:25:25;;;;;;;37.40;17.08;;;;;;;3.06;100.00;101698.50;10329409;28;20038;-71
2022/11/28 15:30:26;;;;;;;29.35;18.75;;;;;;;3.11;100.00;101705.19;10299230;28;20507;-71
2022/11/28 15:35:27;;;;;;;38.50;18.13;;;;;;;2.18;100.00;101568.69;10284782;28;20043;-71
2022/11/28 15:40:31;;;;;;;30.60;16.42;;;;;;;3.00;100.00;101715.44;10272928;28;20140;-71
2022/11/28 15:45:36;;;;;;;23.97;14.60;;;;;;;2.88;100.00;101698.59;10274478;28;20053;-71
2022/11/28 15:50:50;;;;;;;23.70;14.02;;;;;;;2.86;100.00;101702.22;10280063;28;20054;-72
2022/11/28 15:56:07;;;;;;;24.08;12.20;;;;;;;2.44;100.00;101619.72;10313018;28;20132;-72
2022/11/28 16:01:08;;;;;;;22.52;12.13;;;;;;;2.81;100.00;101707.72;10306400;28;20081;-72
2022/11/28 16:06:09;;;;;;;22.33;9.60;;;;;;;2.18;100.00;101623.72;10295372;28;20057;-71
2022/11/28 16:11:14;;;;;;;12.52;8.10;;;;;;;2.48;100.00;101685.03;10330790;28;20072;-72
2022/11/28 16:16:20;;;;;;;10.32;7.63;;;;;;;2.24;99.70;101647.88;10314281;28;20038;-73
2022/11/28 16:21:25;;;;;;;10.57;7.05;;;;;;;2.62;100.00;101701.78;10311644;28;20050;-73
2022/11/28 16:26:25;;;;;;;15.77;7.78;;;;;;;2.71;99.83;101717.88;10301398;28;20446;-73
2022/11/28 16:31:28;;;;;;;13.80;8.30;;;;;;;2.14;100.00;101620.44;10309524;28;20089;-74
2022/11/28 16:36:29;;;;;;;13.40;8.75;;;;;;;2.81;100.00;101720.00;10296553;28;20046;-73
2022/11/28 16:41:31;;;;;;;15.38;7.68;;;;;;;2.75;100.00;101708.06;10286964;28;20050;-73
2022/11/28 16:46:39;;;;;;;12.57;8.20;;;;;;;2.67;100.00;101708.50;10295285;28;20063;-73
2022/11/28 16:51:40;;;;;;;12.13;7.13;;;;;;;2.07;99.98;101620.88;10285571;28;20497;-72
2022/11/28 16:56:43;;;;;;;11.95;7.75;;;;;;;2.61;100.00;101707.97;10297034;28;20387;-72
2022/11/28 17:01:47;;;;;;;10.77;7.13;;;;;;;2.54;99.41;101710.06;10303251;28;20050;-73
2022/11/28 17:06:49;;;;;;;15.00;6.75;;;;;;;2.64;100.00;101727.03;10294019;28;20149;-72
2022/11/28 17:11:57;;;;;;;17.98;7.78;;;;;;;2.57;100.00;101714.31;10311959;28;20050;-73
2022/11/28 17:16:58;;;;;;;15.13;8.18;;;;;;;2.12;100.00;101631.94;10295362;28;20049;-74
2022/11/28 17:22:01;;;;;;;13.50;7.13;;;;;;;2.50;100.00;101698.06;10286893;28;20074;-72
2022/11/28 17:27:06;;;;;;;12.77;6.70;;;;;;;2.62;100.00;101726.25;10286673;28;20137;-72
2022/11/28 17:32:11;;;;;;;11.50;6.13;;;;;;;2.18;100.00;101648.16;10282505;28;20109;-72
2022/11/28 17:37:12;;;;;;;22.75;6.72;;;;;;;2.53;100.00;101705.75;10283471;28;20093;-73
2022/11/28 17:42:12;;;;;;;14.20;6.53;;;;;;;2.31;100.00;101676.38;10285715;28;20064;-73
2022/11/28 17:47:13;;;;;;;13.32;6.95;;;;;;;2.46;100.00;101710.50;10282638;28;20054;-72
2022/11/28 17:52:15;;;;;;;10.30;6.38;;;;;;;2.53;100.00;101711.00;10286700;28;20626;-72
2022/11/28 17:57:16;;;;;;;11.15;7.47;;;;;;;2.71;100.00;101722.28;10289001;28;20050;-73
2022/11/28 18:02:17;;;;;;;11.70;7.55;;;;;;;2.22;100.00;101634.00;10297195;28;20467;-73
2022/11/28 18:07:18;;;;;;;14.48;8.88;;;;;;;2.45;100.00;101685.22;10291894;28;20125;-73
2022/11/28 18:12:19;;;;;;;15.27;7.80;;;;;;;2.47;100.00;101696.44;10291743;28;20035;-73
2022/11/28 18:17:19;;;;;;;10.95;7.97;;;;;;;2.51;100.00;101710.22;10293626;28;20051;-73
2022/11/28 18:22:20;;;;;;;14.20;6.05;;;;;;;2.35;100.00;101680.53;10291506;28;20089;-73
2022/11/28 18:27:21;;;;;;;15.63;6.57;;;;;;;2.05;100.00;101645.38;10294898;28;20507;-72
2022/11/28 18:32:22;;;;;;;27.38;7.43;;;;;;;2.55;100.00;101718.81;10297515;28;20038;-73
2022/11/28 18:37:23;;;;;;;12.68;7.00;;;;;;;1.93;100.00;101618.97;10307037;28;20074;-71
2022/11/28 18:42:23;;;;;;;18.42;8.05;;;;;;;2.56;100.00;101715.25;10337676;28;20042;-73
2022/11/28 18:47:27;;;;;;;16.05;7.18;;;;;;;2.49;100.00;101697.22;10353086;28;20137;-73
2022/11/28 18:52:28;;;;;;;12.25;7.65;;;;;;;2.14;100.00;101637.94;10337698;28;20042;-74
2022/11/28 18:57:31;;;;;;;17.73;7.13;;;;;;;2.60;100.00;101717.59;10336918;28;20034;-74
2022/11/28 19:02:32;;;;;;;13.07;5.73;;;;;;;2.54;100.00;101706.59;10337201;28;20054;-73
2022/11/28 19:07:33;;;;;;;16.27;6.07;;;;;;;2.48;100.00;101705.16;10336755;28;20527;-73
2022/11/28 19:12:34;;;;;;;11.57;4.93;;;;;;;2.55;100.00;101709.16;10336881;28;20522;-73
2022/11/28 19:17:35;;;;;;;18.10;5.00;;;;;;;2.60;100.00;101716.75;10337651;28;20494;-73
2022/11/28 19:22:35;;;;;;;11.90;5.03;;;;;;;2.49;100.00;101702.47;10311510;28;20430;-73
2022/11/28 19:27:36;;;;;;;10.07;4.43;;;;;;;2.41;100.00;101685.44;10305677;28;20103;-73
2022/11/28 19:32:37;;;;;;;9.77;4.43;;;;;;;2.62;100.00;101712.28;10306680;28;20038;-73
2022/11/28 19:37:38;;;;;;;15.77;4.47;;;;;;;2.27;100.00;101645.09;10311095;28;20117;-73
2022/11/28 19:42:39;;;;;;;7.25;4.13;;;;;;;2.67;100.00;101712.91;10324936;28;20046;-73
2022/11/28 19:47:41;;;;;;;17.45;4.57;;;;;;;2.64;100.00;101728.81;10279936;28;20046;-73
2022/11/28 19:52:42;;;;;;;10.52;3.92;;;;;;;2.52;100.00;101701.44;10305232;28;20049;-74
2022/11/28 19:57:43;;;;;;;20.27;4.43;;;;;;;2.40;100.00;101681.97;10313166;28;20050;-73
2022/11/28 20:02:43;;;;;;;12.38;4.00;;;;;;;2.17;100.00;101643.03;10331018;28;20042;-73
2022/11/28 20:07:44;;;;;;;19.58;4.15;;;;;;;2.54;100.00;101714.47;10335067;28;20498;-73
2022/11/28 20:12:45;;;;;;;10.95;4.10;;;;;;;2.09;100.00;101627.69;10334104;28;20065;-73
2022/11/28 20:17:46;;;;;;;10.07;3.92;;;;;;;2.57;100.00;101701.19;10333978;28;20092;-72
2022/11/28 20:22:47;;;;;;;10.98;3.97;;;;;;;2.56;100.00;101692.47;10334463;28;20562;-72
2022/11/28 20:27:48;;;;;;;9.90;4.60;;;;;;;2.16;100.00;101629.06;10333450;28;20104;-72
2022/11/28 20:32:48;;;;;;;12.70;4.68;;;;;;;2.63;100.00;101706.09;10326850;28;20070;-73
2022/11/28 20:37:49;;;;;;;11.77;4.93;;;;;;;2.62;100.00;101709.66;10300306;28;20047;-73
2022/11/28 20:42:50;;;;;;;9.10;4.78;;;;;;;2.46;100.00;101680.81;10294154;28;20444;-72
2022/11/28 20:47:51;;;;;;;14.60;6.07;;;;;;;2.03;100.00;101631.50;10292215;28;20054;-73
2022/11/28 20:52:52;;;;;;;13.65;5.88;;;;;;;2.32;100.00;101688.56;10293162;28;20050;-72
2022/11/28 20:57:52;;;;;;;12.77;6.00;;;;;;;2.24;100.00;101681.97;10290946;28;20475;-73
2022/11/28 21:02:53;;;;;;;14.55;6.15;;;;;;;2.25;100.00;101686.25;10292840;28;20034;-73
2022/11/28 21:07:54;;;;;;;15.30;6.63;;;;;;;2.40;100.00;101700.34;10291999;28;20047;-73
2022/11/28 21:12:55;;;;;;;17.85;6.25;;;;;;;2.19;100.00;101654.28;10292363;28;20042;-73
2022/11/28 21:17:55;;;;;;;14.10;6.10;;;;;;;2.40;100.00;101694.25;10292711;28;20042;-73
2022/11/28 21:22:56;;;;;;;15.52;6.45;;;;;;;2.31;100.00;101671.97;10291726;28;20399;-73
2022/11/28 21:27:57;;;;;;;14.25;6.35;;;;;;;2.39;100.00;101684.66;10320258;28;20564;-73
2022/11/28 21:32:58;;;;;;;11.85;6.13;;;;;;;1.96;100.00;101601.28;10331572;28;20514;-73
2022/11/28 21:37:59;;;;;;;13.35;6.43;;;;;;;2.05;100.00;101615.69;10331090;28;20490;-73
2022/11/28 21:43:00;;;;;;;10.55;5.57;;;;;;;2.47;100.00;101688.56;10332245;28;20038;-73
2022/11/28 21:48:01;;;;;;;15.93;7.07;;;;;;;2.44;100.00;101691.34;10332131;28;20514;-73
2022/11/28 21:53:02;;;;;;;14.57;6.63;;;;;;;2.39;100.00;101695.16;10331644;28;20050;-73
2022/11/28 21:58:03;;;;;;;13.95;6.60;;;;;;;2.37;100.00;101653.28;10330888;28;20054;-73
2022/11/28 22:03:05;;;;;;;15.35;6.82;;;;;;;2.50;100.00;101677.91;10331198;28;20406;-73
2022/11/28 22:08:06;;;;;;;13.45;6.60;;;;;;;2.71;100.00;101702.13;10346400;28;20047;-73
2022/11/28 22:13:06;;;;;;;16.25;5.93;;;;;;;2.48;100.00;101671.06;10331596;28;20034;-73
2022/11/28 22:18:09;;;;;;;9.38;5.85;;;;;;;2.62;100.00;101707.88;10331126;28;20045;-73
2022/11/28 22:23:09;;;;;;;10.82;5.65;;;;;;;2.41;100.00;101680.19;10329837;28;20045;-73
2022/11/28 22:28:10;;;;;;;12.00;6.25;;;;;;;2.33;100.00;101669.25;10330540;28;20521;-73
2022/11/28 22:33:11;;;;;;;15.43;6.28;;;;;;;2.34;100.00;101686.72;10328482;28;20065;-73
2022/11/28 22:38:12;;;;;;;13.23;6.45;;;;;;;2.53;100.00;101702.28;10306544;28;20054;-73
2022/11/28 22:43:13;;;;;;;14.52;6.63;;;;;;;2.35;100.00;101680.53;10298047;28;20057;-73
2022/11/28 22:48:13;;;;;;;11.60;6.63;;;;;;;2.24;100.00;101689.81;10298177;28;20471;-73
2022/11/28 22:53:14;;;;;;;14.23;7.10;;;;;;;2.01;100.00;101649.09;10298103;28;20047;-73
2022/11/28 22:58:15;;;;;;;12.95;7.60;;;;;;;1.87;100.00;101630.59;10296788;28;20047;-73
2022/11/28 23:03:16;;;;;;;17.48;7.65;;;;;;;2.31;100.00;101697.38;10297320;28;20039;-71
2022/11/28 23:08:17;;;;;;;16.35;8.55;;;;;;;2.33;100.00;101703.34;10297662;28;20483;-73